< < Back
Terminal Aerodrome Forecast


Current Version              Previous Versions:   1  2  3  4  5  6  7  8  9  

Terminal Aerodrome Forecast

186
FTUS42 KFFC 030538
TAFPDK
TAF
KPDK 030538Z 0306/0406 00000KT P6SM FEW250
     FM031600 22006KT P6SM SKC
     FM040300 00000KT P6SM FEW220=



Latest METAR

180
SAUS70 KWBC 040400
MTRPDK
METAR KPDK 040353Z AUTO 00000KT 10SM BKN080 16/11 A3020 RMK AO2 SLP217
T01560111


USA.gov is the U.S. government's official web portal to all federal, state and local government web resources and services.